createdAt,value
2018-01-12T00:00:57.607Z,42.27
2018-01-12T00:01:58.108Z,42.28
2018-01-12T00:02:58.543Z,42.26
2018-01-12T00:03:59.011Z,42.28
2018-01-12T00:04:59.481Z,42.28
2018-01-12T00:05:59.950Z,42.25
2018-01-12T00:07:00.416Z,42.27
2018-01-12T00:08:00.885Z,42.24
2018-01-12T00:09:01.353Z,42.25
2018-01-12T00:10:01.822Z,42.25
2018-01-12T00:11:02.289Z,42.26
2018-01-12T00:12:02.759Z,42.25
2018-01-12T00:13:03.225Z,42.26
2018-01-12T00:14:03.694Z,42.22
2018-01-12T00:15:04.163Z,42.21
2018-01-12T00:16:04.632Z,42.21
2018-01-12T00:17:05.099Z,42.21
2018-01-12T00:18:05.569Z,42.25
2018-01-12T00:19:06.035Z,42.26
2018-01-12T00:20:06.504Z,42.25
2018-01-12T00:21:06.970Z,42.23
2018-01-12T00:22:07.440Z,42.23
2018-01-12T00:23:07.905Z,42.21
2018-01-12T00:24:08.374Z,42.21
2018-01-12T00:25:08.842Z,42.17
2018-01-12T00:26:09.310Z,42.17
2018-01-12T00:27:09.777Z,42.19
2018-01-12T00:28:10.245Z,42.22
2018-01-12T00:29:10.716Z,42.20
2018-01-12T00:30:11.183Z,42.19
2018-01-12T00:31:11.649Z,42.17
2018-01-12T00:32:12.117Z,42.18
2018-01-12T00:33:12.587Z,42.17
2018-01-12T00:34:13.055Z,42.18
2018-01-12T00:35:13.522Z,42.14
2018-01-12T00:36:13.990Z,42.07
2018-01-12T00:37:14.458Z,42.06
2018-01-12T00:38:14.926Z,42.04
2018-01-12T00:39:15.394Z,41.99
2018-01-12T00:40:15.861Z,41.98
2018-01-12T00:41:16.329Z,41.97
2018-01-12T00:42:16.797Z,41.93
2018-01-12T00:43:17.265Z,41.93
2018-01-12T00:44:17.734Z,41.94
2018-01-12T00:45:18.201Z,41.93
2018-01-12T00:46:18.669Z,41.92
2018-01-12T00:47:19.137Z,41.86
2018-01-12T00:48:19.604Z,41.84
2018-01-12T00:49:20.074Z,41.81
2018-01-12T00:50:20.542Z,41.80
2018-01-12T00:51:21.009Z,41.80
2018-01-12T00:52:21.476Z,41.78
2018-01-12T00:53:21.944Z,41.75
2018-01-12T00:54:22.413Z,41.75
2018-01-12T00:55:22.880Z,41.71
2018-01-12T00:56:23.349Z,41.71
2018-01-12T00:57:23.817Z,41.68
2018-01-12T00:58:24.285Z,41.64
2018-01-12T00:59:24.750Z,41.64
2018-01-12T01:00:25.220Z,41.63
2018-01-12T01:01:25.686Z,41.58
2018-01-12T01:02:26.156Z,41.59
2018-01-12T01:03:26.622Z,41.55
2018-01-12T01:04:27.093Z,41.55
2018-01-12T01:05:27.559Z,41.54
2018-01-12T01:06:28.027Z,41.53
2018-01-12T01:07:28.498Z,41.53
2018-01-12T01:08:28.963Z,41.51
2018-01-12T01:09:29.433Z,41.51
2018-01-12T01:10:29.900Z,41.49
2018-01-12T01:11:30.366Z,41.48
2018-01-12T01:12:30.837Z,41.46
2018-01-12T01:13:31.303Z,41.46
2018-01-12T01:14:31.775Z,41.47
2018-01-12T01:15:32.238Z,41.50
2018-01-12T01:16:32.705Z,41.49
2018-01-12T01:17:33.177Z,41.47
2018-01-12T01:18:33.641Z,41.48
2018-01-12T01:19:34.110Z,41.41
2018-01-12T01:20:34.577Z,41.41
2018-01-12T01:21:35.045Z,41.40
2018-01-12T01:22:35.511Z,41.42
2018-01-12T01:24:36.446Z,41.41
2018-01-12T01:25:36.916Z,41.40
2018-01-12T01:26:37.385Z,41.36
2018-01-12T01:27:37.850Z,41.35
2018-01-12T01:28:38.319Z,41.35
2018-01-12T01:29:38.785Z,41.32
2018-01-12T01:30:39.257Z,41.31
2018-01-12T01:31:39.721Z,41.31
2018-01-12T01:32:40.187Z,41.29
2018-01-12T01:33:40.657Z,41.33
2018-01-12T01:34:41.126Z,41.31
2018-01-12T01:35:41.591Z,41.34
2018-01-12T01:36:42.061Z,41.30
2018-01-12T01:37:42.526Z,41.29
2018-01-12T01:38:42.995Z,41.27
2018-01-12T01:39:43.463Z,41.27
2018-01-12T01:40:43.930Z,41.27
2018-01-12T01:41:44.403Z,41.27
2018-01-12T01:42:44.866Z,41.25
2018-01-12T01:43:45.332Z,41.24
2018-01-12T01:44:45.800Z,41.22
2018-01-12T01:45:46.268Z,41.25
2018-01-12T01:46:46.737Z,41.26
2018-01-12T01:47:47.202Z,41.25
2018-01-12T01:48:47.672Z,41.25
2018-01-12T01:49:48.138Z,41.22
2018-01-12T01:50:48.607Z,41.21
2018-01-12T01:51:49.073Z,41.25
2018-01-12T01:52:49.743Z,41.22
2018-01-12T01:53:50.008Z,41.23
2018-01-12T01:54:50.477Z,41.24
2018-01-12T01:55:50.949Z,41.24
2018-01-12T01:56:51.410Z,41.26
2018-01-12T01:57:51.879Z,41.23
2018-01-12T01:58:52.348Z,41.24
2018-01-12T01:59:52.915Z,41.24
2018-01-12T02:00:53.280Z,41.23
2018-01-12T02:01:53.755Z,41.19
2018-01-12T02:02:54.217Z,41.22
2018-01-12T02:03:54.683Z,41.25
2018-01-12T02:04:55.152Z,41.19
2018-01-12T02:05:55.619Z,41.20
2018-01-12T02:06:56.087Z,41.18
2018-01-12T02:07:56.554Z,41.19
2018-01-12T02:08:57.020Z,41.20
2018-01-12T02:09:57.489Z,41.20
2018-01-12T02:10:57.957Z,41.16
2018-01-12T02:11:58.424Z,41.17
2018-01-12T02:12:58.897Z,41.15
2018-01-12T02:13:59.359Z,41.16
2018-01-12T02:14:59.826Z,41.15
2018-01-12T02:16:00.292Z,41.17
2018-01-12T02:17:00.762Z,41.17
2018-01-12T02:18:01.231Z,41.21
2018-01-12T02:19:01.697Z,41.19
2018-01-12T02:20:02.164Z,41.19
2018-01-12T02:21:02.631Z,41.16
2018-01-12T02:22:03.098Z,41.14
2018-01-12T02:23:03.566Z,41.16
2018-01-12T02:24:04.032Z,41.16
2018-01-12T02:25:04.500Z,41.14
2018-01-12T02:26:04.967Z,41.14
2018-01-12T02:27:05.436Z,41.14
2018-01-12T02:28:05.902Z,41.16
2018-01-12T02:29:06.370Z,41.15
2018-01-12T02:30:06.837Z,41.14
2018-01-12T02:31:07.306Z,41.13
2018-01-12T02:32:07.770Z,41.13
2018-01-12T02:33:08.239Z,41.09
2018-01-12T02:34:08.706Z,41.08
2018-01-12T02:35:09.174Z,41.09
2018-01-12T02:36:09.639Z,41.09
2018-01-12T02:37:10.108Z,41.12
2018-01-12T02:38:10.575Z,41.13
2018-01-12T02:39:11.043Z,41.14
2018-01-12T02:40:11.510Z,41.15
2018-01-12T02:41:11.977Z,41.15
2018-01-12T02:42:12.455Z,41.15
2018-01-12T02:43:12.915Z,41.13
2018-01-12T02:44:13.379Z,41.10
2018-01-12T02:45:13.845Z,41.11
2018-01-12T02:46:14.311Z,41.11
2018-01-12T02:47:14.780Z,41.11
2018-01-12T02:48:15.248Z,41.10
2018-01-12T02:49:15.714Z,41.13
2018-01-12T02:50:16.181Z,41.14
2018-01-12T02:51:16.649Z,41.15
2018-01-12T02:52:17.116Z,41.11
2018-01-12T02:53:17.584Z,41.12
2018-01-12T02:54:18.050Z,41.14
2018-01-12T02:55:18.518Z,41.12
2018-01-12T02:56:18.986Z,41.12
2018-01-12T02:57:19.452Z,41.12
2018-01-12T02:58:19.917Z,41.13
2018-01-12T02:59:20.388Z,41.14
2018-01-12T03:00:20.852Z,41.16
2018-01-12T03:01:21.320Z,41.17
2018-01-12T03:02:21.787Z,41.18
2018-01-12T03:03:22.257Z,41.16
2018-01-12T03:04:22.721Z,41.14
2018-01-12T03:05:23.189Z,41.17
2018-01-12T03:06:23.656Z,41.18
2018-01-12T03:07:24.126Z,41.17
2018-01-12T03:08:24.590Z,41.20
2018-01-12T03:09:25.057Z,41.22
2018-01-12T03:10:25.522Z,41.24
2018-01-12T03:11:25.994Z,41.22
2018-01-12T03:12:26.457Z,41.24
2018-01-12T03:13:26.925Z,41.24
2018-01-12T03:14:27.393Z,41.23
2018-01-12T03:15:27.862Z,41.21
2018-01-12T03:16:28.325Z,41.22
2018-01-12T03:17:28.797Z,41.19
2018-01-12T03:18:29.266Z,41.18
2018-01-12T03:19:29.731Z,41.16
2018-01-12T03:20:30.199Z,41.17
2018-01-12T03:21:30.670Z,41.18
2018-01-12T03:22:31.135Z,41.19
2018-01-12T03:23:31.600Z,41.18
2018-01-12T03:24:32.067Z,41.16
2018-01-12T03:25:32.537Z,41.16
2018-01-12T03:26:33.000Z,41.14
2018-01-12T03:27:33.469Z,41.14
2018-01-12T03:28:33.935Z,41.14
2018-01-12T03:29:34.403Z,41.14
2018-01-12T03:32:35.799Z,41.15
2018-01-12T03:34:36.738Z,41.14
2018-01-12T03:35:37.206Z,41.08
2018-01-12T03:36:37.668Z,41.05
2018-01-12T03:37:38.137Z,41.04
2018-01-12T03:38:38.605Z,41.03
2018-01-12T03:39:39.073Z,41.05
2018-01-12T03:40:39.592Z,41.07
2018-01-12T03:41:40.008Z,41.02
2018-01-12T03:42:40.473Z,40.99
2018-01-12T03:43:40.935Z,41.00
2018-01-12T03:44:41.407Z,40.98
2018-01-12T03:45:41.874Z,41.00
2018-01-12T03:46:42.336Z,41.00
2018-01-12T03:47:42.808Z,41.00
2018-01-12T03:48:43.274Z,41.00
2018-01-12T03:49:43.742Z,40.99
2018-01-12T03:50:44.203Z,41.00
2018-01-12T03:51:44.674Z,40.99
2018-01-12T03:52:45.141Z,40.95
2018-01-12T03:53:45.603Z,40.92
2018-01-12T03:54:46.074Z,40.90
2018-01-12T03:55:46.544Z,40.90
2018-01-12T03:56:47.009Z,40.87
2018-01-12T03:57:47.471Z,40.88
2018-01-12T03:58:47.945Z,40.89
2018-01-12T03:59:48.410Z,40.91
2018-01-12T04:02:49.810Z,40.97
2018-01-12T04:03:50.275Z,40.98
2018-01-12T04:04:50.736Z,40.98
2018-01-12T04:05:51.210Z,40.98
2018-01-12T04:06:51.676Z,40.93
2018-01-12T04:07:52.144Z,40.92
2018-01-12T04:08:52.610Z,40.92
2018-01-12T04:09:53.077Z,40.94
2018-01-12T04:10:53.544Z,40.91
2018-01-12T04:11:54.011Z,40.92
2018-01-12T04:12:54.472Z,40.89
2018-01-12T04:13:54.944Z,40.92
2018-01-12T04:14:55.410Z,40.91
2018-01-12T04:15:55.877Z,40.94
2018-01-12T04:16:56.339Z,40.92
2018-01-12T04:18:57.277Z,40.96
2018-01-12T04:19:57.744Z,40.99
2018-01-12T04:20:58.210Z,40.99
2018-01-12T04:21:58.678Z,40.96
2018-01-12T04:22:59.145Z,40.97
2018-01-12T04:23:59.606Z,40.93
2018-01-12T04:25:00.078Z,40.94
2018-01-12T04:26:00.748Z,40.95
2018-01-12T04:27:01.014Z,40.97
2018-01-12T04:28:01.474Z,40.95
2018-01-12T04:29:01.945Z,40.95
2018-01-12T04:30:02.411Z,40.95
2018-01-12T04:32:03.345Z,40.92
2018-01-12T04:33:03.812Z,40.91
2018-01-12T04:34:04.281Z,40.86
2018-01-12T04:35:04.784Z,40.84
2018-01-12T04:36:05.212Z,40.81
2018-01-12T04:38:06.146Z,40.84
2018-01-12T04:39:06.613Z,40.85
2018-01-12T04:40:07.081Z,40.85
2018-01-12T04:41:07.550Z,40.81
2018-01-12T04:42:08.014Z,40.79
2018-01-12T04:43:08.480Z,40.78
2018-01-12T04:44:08.946Z,40.80
2018-01-12T04:45:09.412Z,40.82
2018-01-12T04:46:09.879Z,40.82
2018-01-12T04:47:10.348Z,40.81
2018-01-12T04:48:10.814Z,40.81
2018-01-12T04:49:11.276Z,40.81
2018-01-12T04:50:11.747Z,40.81
2018-01-12T04:51:12.214Z,40.82
2018-01-12T04:52:12.682Z,40.78
2018-01-12T04:53:13.148Z,40.77
2018-01-12T04:54:13.615Z,40.75
2018-01-12T04:55:14.083Z,40.73
2018-01-12T04:56:14.549Z,40.69
2018-01-12T04:57:15.010Z,40.71
2018-01-12T04:58:15.483Z,40.68
2018-01-12T04:59:16.153Z,40.66
2018-01-12T05:00:16.417Z,40.64
2018-01-12T05:01:16.877Z,40.63
2018-01-12T05:02:28.878Z,40.59
2018-01-12T05:03:18.018Z,40.56
2018-01-12T05:04:18.284Z,40.58
2018-01-12T05:05:18.748Z,40.60
2018-01-12T05:06:19.216Z,40.60
2018-01-12T05:08:20.151Z,40.56
2018-01-12T05:09:20.616Z,40.54
2018-01-12T05:10:21.090Z,40.56
2018-01-12T05:11:21.751Z,40.54
2018-01-12T05:12:22.016Z,40.53
2018-01-12T05:13:22.478Z,40.51
2018-01-12T05:14:22.950Z,40.54
2018-01-12T05:15:23.417Z,40.54
2018-01-12T05:16:23.883Z,40.55
2018-01-12T05:17:35.884Z,40.54
2018-01-12T05:19:25.284Z,40.54
2018-01-12T05:20:25.751Z,40.54
2018-01-12T05:21:26.212Z,40.53
2018-01-12T05:22:26.684Z,40.49
2018-01-12T05:23:27.150Z,40.47
2018-01-12T05:24:27.617Z,40.50
2018-01-12T05:25:28.078Z,40.49
2018-01-12T05:26:28.549Z,40.47
2018-01-12T05:27:29.016Z,40.49
2018-01-12T05:28:29.484Z,40.48
2018-01-12T05:29:29.947Z,40.48
2018-01-12T05:30:30.415Z,40.44
2018-01-12T05:31:30.883Z,40.44
2018-01-12T05:32:31.350Z,40.44
2018-01-12T05:34:32.277Z,40.46
2018-01-12T05:36:33.215Z,40.45
2018-01-12T05:37:33.680Z,40.44
2018-01-12T05:38:34.150Z,40.45
2018-01-12T05:39:34.616Z,40.48
2018-01-12T05:40:35.077Z,40.49
2018-01-12T05:41:35.548Z,40.47
2018-01-12T05:43:36.483Z,40.44
2018-01-12T05:44:36.947Z,40.44
2018-01-12T05:46:37.881Z,40.43
2018-01-12T05:47:38.343Z,40.43
2018-01-12T05:48:38.815Z,40.41
2018-01-12T05:50:39.747Z,40.43
2018-01-12T05:51:40.207Z,40.43
2018-01-12T05:52:40.683Z,40.45
2018-01-12T05:53:41.145Z,40.44
2018-01-12T05:56:42.545Z,40.38
2018-01-12T05:57:43.012Z,40.38
2018-01-12T05:58:43.478Z,40.40
2018-01-12T05:59:43.946Z,40.41
2018-01-12T06:00:44.408Z,40.40
2018-01-12T06:01:44.873Z,40.39
2018-01-12T06:02:45.546Z,40.39
2018-01-12T06:03:45.809Z,40.40
2018-01-12T06:04:46.277Z,40.43
2018-01-12T06:05:46.945Z,40.45
2018-01-12T06:06:47.209Z,40.44
2018-01-12T06:07:47.673Z,40.44
2018-01-12T06:08:48.137Z,40.44
2018-01-12T06:09:48.614Z,40.44
2018-01-12T06:10:49.075Z,40.38
2018-01-12T06:11:49.541Z,40.39
2018-01-12T06:12:50.007Z,40.38
2018-01-12T06:13:50.472Z,40.37
2018-01-12T06:14:50.940Z,40.37
2018-01-12T06:15:51.400Z,40.38
2018-01-12T06:16:51.872Z,40.40
2018-01-12T06:17:52.336Z,40.43
2018-01-12T06:18:52.803Z,40.44
2018-01-12T06:19:53.270Z,40.45
2018-01-12T06:21:54.201Z,40.39
2018-01-12T06:22:54.663Z,40.42
2018-01-12T06:23:55.135Z,40.43
2018-01-12T06:24:55.600Z,40.44
2018-01-12T06:26:56.536Z,40.46
2018-01-12T06:27:57.000Z,40.45
2018-01-12T06:28:57.466Z,40.48
2018-01-12T06:29:57.931Z,40.44
2018-01-12T06:30:58.398Z,40.47
2018-01-12T06:31:58.861Z,40.48
2018-01-12T06:32:59.331Z,40.49
2018-01-12T06:33:59.796Z,40.50
2018-01-12T06:35:00.263Z,40.50
2018-01-12T06:36:00.727Z,40.51
2018-01-12T06:37:01.194Z,40.51
2018-01-12T06:38:01.660Z,40.51
2018-01-12T06:39:02.122Z,40.51
2018-01-12T06:41:03.059Z,40.47
2018-01-12T06:42:03.524Z,40.44
2018-01-12T06:44:04.503Z,40.47
2018-01-12T06:45:04.923Z,40.45
2018-01-12T06:47:05.854Z,40.47
2018-01-12T06:48:06.321Z,40.48
2018-01-12T06:49:06.784Z,40.45
2018-01-12T06:51:07.717Z,40.46
2018-01-12T06:52:08.184Z,40.49
2018-01-12T06:53:08.652Z,40.49
2018-01-12T06:54:09.113Z,40.50
2018-01-12T06:55:09.583Z,40.50
2018-01-12T06:56:10.052Z,40.49
2018-01-12T06:57:10.514Z,40.47
2018-01-12T06:58:10.975Z,40.45
2018-01-12T06:59:23.004Z,40.43
2018-01-12T07:00:11.915Z,40.43
2018-01-12T07:01:12.377Z,40.44
2018-01-12T07:02:13.182Z,40.45
2018-01-12T07:03:13.303Z,40.46
2018-01-12T07:04:13.775Z,40.41
2018-01-12T07:05:14.240Z,40.42
2018-01-12T07:06:14.707Z,40.45
2018-01-12T07:07:15.174Z,40.39
2018-01-12T07:08:15.640Z,40.41
2018-01-12T07:09:16.106Z,40.37
2018-01-12T07:10:16.570Z,40.37
2018-01-12T07:11:17.037Z,40.35
2018-01-12T07:12:17.498Z,40.36
2018-01-12T07:13:17.962Z,40.37
2018-01-12T07:14:18.428Z,40.41
2018-01-12T07:15:18.896Z,40.43
2018-01-12T07:16:19.363Z,40.39
2018-01-12T07:17:19.833Z,40.44
2018-01-12T07:18:20.291Z,40.46
2018-01-12T07:19:20.760Z,40.48
2018-01-12T07:20:21.230Z,40.48
2018-01-12T07:21:21.696Z,40.53
2018-01-12T07:22:22.162Z,40.56
2018-01-12T07:23:22.629Z,40.58
2018-01-12T07:24:23.091Z,40.59
2018-01-12T07:25:23.560Z,40.61
2018-01-12T07:26:24.026Z,40.64
2018-01-12T07:27:24.493Z,40.66
2018-01-12T07:28:24.960Z,40.72
2018-01-12T07:29:25.427Z,40.72
2018-01-12T07:30:25.888Z,40.74
2018-01-12T07:31:26.358Z,40.75
2018-01-12T07:32:26.821Z,40.74
2018-01-12T07:33:27.287Z,40.75
2018-01-12T07:34:27.753Z,40.74
2018-01-12T07:35:28.220Z,40.74
2018-01-12T07:36:28.686Z,40.78
2018-01-12T07:37:29.155Z,40.77
2018-01-12T07:38:29.619Z,40.76
2018-01-12T07:39:30.086Z,40.76
2018-01-12T07:40:30.560Z,40.76
2018-01-12T07:41:31.020Z,40.75
2018-01-12T07:42:31.486Z,40.76
2018-01-12T07:43:31.953Z,40.76
2018-01-12T07:44:32.421Z,40.79
2018-01-12T07:45:32.886Z,40.81
2018-01-12T07:46:33.353Z,40.80
2018-01-12T07:47:33.819Z,40.80
2018-01-12T07:48:34.287Z,40.78
2018-01-12T07:49:34.764Z,40.78
2018-01-12T07:50:35.220Z,40.79
2018-01-12T07:51:35.690Z,40.79
2018-01-12T07:52:36.155Z,40.79
2018-01-12T07:53:36.626Z,40.78
2018-01-12T07:54:37.136Z,40.79
2018-01-12T07:55:37.559Z,40.80
2018-01-12T07:56:38.028Z,40.79
2018-01-12T07:57:38.495Z,40.81
2018-01-12T07:58:38.962Z,40.81
2018-01-12T07:59:39.429Z,40.78
2018-01-12T08:00:39.893Z,40.80
2018-01-12T08:01:40.366Z,40.79
2018-01-12T08:02:40.830Z,40.78
2018-01-12T08:03:41.298Z,40.77
2018-01-12T08:04:41.762Z,40.75
2018-01-12T08:05:42.233Z,40.73
2018-01-12T08:06:42.698Z,40.76
2018-01-12T08:08:43.656Z,40.83
2018-01-12T08:09:44.141Z,40.82
2018-01-12T08:10:44.573Z,40.86
2018-01-12T08:11:45.033Z,40.84
2018-01-12T08:12:45.505Z,40.82
2018-01-12T08:13:45.975Z,40.82
2018-01-12T08:14:46.441Z,40.82
2018-01-12T08:16:47.377Z,40.81
2018-01-12T08:17:47.844Z,40.76
2018-01-12T08:18:48.312Z,40.76
2018-01-12T08:19:48.780Z,40.75
2018-01-12T08:20:49.252Z,40.80
2018-01-12T08:21:49.717Z,40.76
2018-01-12T08:22:50.181Z,40.73
2018-01-12T08:23:50.652Z,40.72
2018-01-12T08:24:51.123Z,40.69
2018-01-12T08:25:51.590Z,40.70
2018-01-12T08:26:52.059Z,40.71
2018-01-12T08:27:52.527Z,40.69
2018-01-12T08:28:52.996Z,40.60
2018-01-12T08:29:53.459Z,40.58
2018-01-12T08:30:54.138Z,40.55
2018-01-12T08:31:54.401Z,40.50
2018-01-12T08:32:54.870Z,40.45
2018-01-12T08:33:55.334Z,40.39
2018-01-12T08:35:56.277Z,40.32
2018-01-12T08:36:56.744Z,40.33
2018-01-12T08:37:57.218Z,40.35
2018-01-12T08:38:57.684Z,40.33
2018-01-12T08:39:58.153Z,40.33
2018-01-12T08:40:58.618Z,40.36
2018-01-12T08:41:59.094Z,40.30
2018-01-12T08:42:59.561Z,40.27
2018-01-12T08:44:00.033Z,40.21
2018-01-12T08:45:00.494Z,40.25
2018-01-12T08:46:00.969Z,40.20
2018-01-12T08:47:01.438Z,40.18
2018-01-12T08:48:01.909Z,40.14
2018-01-12T08:49:02.377Z,40.09
2018-01-12T08:50:02.847Z,40.09
2018-01-12T08:51:03.315Z,40.10
2018-01-12T08:52:03.782Z,40.07
2018-01-12T08:53:04.258Z,40.05
2018-01-12T08:54:04.750Z,40.05
2018-01-12T08:56:05.721Z,40.02
2018-01-12T08:57:06.138Z,40.00
2018-01-12T08:58:06.607Z,39.96
2018-01-12T08:59:07.077Z,39.95
2018-01-12T09:00:07.548Z,39.93
2018-01-12T09:01:08.019Z,39.90
2018-01-12T09:02:08.490Z,39.88
2018-01-12T09:03:08.954Z,39.85
2018-01-12T09:04:09.428Z,39.83
2018-01-12T09:05:09.898Z,39.83
2018-01-12T09:06:10.372Z,39.81
2018-01-12T09:07:10.839Z,39.79
2018-01-12T09:08:11.310Z,39.75
2018-01-12T09:09:11.781Z,39.78
2018-01-12T09:10:12.246Z,39.84
2018-01-12T09:11:12.722Z,39.82
2018-01-12T09:12:13.194Z,39.83
2018-01-12T09:13:13.664Z,39.82
2018-01-12T09:14:14.131Z,39.87
2018-01-12T09:15:14.606Z,39.86
2018-01-12T09:16:15.078Z,39.83
2018-01-12T09:17:15.548Z,39.84
2018-01-12T09:18:16.024Z,39.87
2018-01-12T09:19:16.489Z,39.93
2018-01-12T09:20:16.962Z,39.98
2018-01-12T09:21:17.427Z,39.99
2018-01-12T09:22:17.906Z,39.97
2018-01-12T09:23:18.374Z,39.97
2018-01-12T09:24:18.848Z,40.01
2018-01-12T09:25:19.312Z,40.09
2018-01-12T09:26:19.789Z,40.10
2018-01-12T09:27:20.262Z,40.12
2018-01-12T09:28:20.730Z,40.09
2018-01-12T09:29:21.203Z,40.13
2018-01-12T09:30:21.673Z,40.16
2018-01-12T09:31:22.144Z,40.20
2018-01-12T09:32:22.612Z,40.24
2018-01-12T09:34:23.560Z,40.28
2018-01-12T09:35:24.032Z,40.31
2018-01-12T09:36:24.498Z,40.30
2018-01-12T09:38:25.448Z,40.35
2018-01-12T09:39:25.918Z,40.38
2018-01-12T09:40:26.390Z,40.38
2018-01-12T09:42:27.336Z,40.37
2018-01-12T09:43:27.803Z,40.37
2018-01-12T09:45:28.750Z,40.46
2018-01-12T09:46:29.235Z,40.54
2018-01-12T09:47:29.693Z,40.54
2018-01-12T09:48:30.165Z,40.50
2018-01-12T09:49:30.640Z,40.45
2018-01-12T09:50:31.110Z,40.38
2018-01-12T09:51:31.580Z,40.39
2018-01-12T09:52:32.054Z,40.40
2018-01-12T09:53:32.527Z,40.42
2018-01-12T09:54:32.995Z,40.41
2018-01-12T09:55:33.471Z,40.45
2018-01-12T09:56:33.942Z,40.50
2018-01-12T09:57:34.417Z,40.50
2018-01-12T09:58:34.889Z,40.47
2018-01-12T09:59:35.359Z,40.47
2018-01-12T10:00:35.832Z,40.45
2018-01-12T10:01:36.300Z,40.47
2018-01-12T10:03:37.249Z,40.43
2018-01-12T10:04:37.720Z,40.40
2018-01-12T10:05:38.188Z,40.42
2018-01-12T10:06:38.669Z,40.46
2018-01-12T10:08:39.610Z,40.49
2018-01-12T10:09:40.084Z,40.48
2018-01-12T10:10:40.557Z,40.46
2018-01-12T10:11:41.028Z,40.43
2018-01-12T10:12:41.495Z,40.40
2018-01-12T10:14:42.446Z,40.30
2018-01-12T10:15:42.920Z,40.26
2018-01-12T10:16:43.387Z,40.29
2018-01-12T10:17:43.863Z,40.29
2018-01-12T10:18:44.338Z,40.30
2018-01-12T10:21:45.755Z,40.28
2018-01-12T10:22:46.227Z,40.28
2018-01-12T10:23:46.696Z,40.31
2018-01-12T10:24:47.175Z,40.29
2018-01-12T10:25:47.647Z,40.26
2018-01-12T10:26:48.118Z,40.23
2018-01-12T10:27:48.592Z,40.22
2018-01-12T10:29:01.403Z,40.22
2018-01-12T10:30:50.011Z,40.25
2018-01-12T10:31:50.482Z,40.24
2018-01-12T10:32:50.953Z,40.23
2018-01-12T10:33:51.430Z,40.22
2018-01-12T10:34:51.894Z,40.20
2018-01-12T10:35:52.372Z,40.20
2018-01-12T10:36:52.844Z,40.20
2018-01-12T10:37:53.317Z,40.17
2018-01-12T10:39:54.264Z,40.10
2018-01-12T10:40:54.739Z,40.10
2018-01-12T10:41:55.205Z,40.08
2018-01-12T10:42:55.682Z,40.05
2018-01-12T10:43:56.156Z,39.99
2018-01-12T10:44:56.627Z,39.98
2018-01-12T10:45:57.095Z,39.94
2018-01-12T10:46:57.575Z,39.88
2018-01-12T10:47:58.046Z,39.83
2018-01-12T10:48:58.520Z,39.78
2018-01-12T10:49:58.993Z,39.72
2018-01-12T10:50:59.466Z,39.67
2018-01-12T10:51:59.939Z,39.63
2018-01-12T10:53:00.408Z,39.57
2018-01-12T10:54:00.884Z,39.54
2018-01-12T10:56:01.849Z,39.49
2018-01-12T10:57:02.299Z,39.45
2018-01-12T10:58:02.778Z,39.43
2018-01-12T11:00:03.722Z,39.40
2018-01-12T11:01:04.197Z,39.39
2018-01-12T11:02:04.670Z,39.36
2018-01-12T11:03:05.143Z,39.32
2018-01-12T11:04:05.610Z,39.27
2018-01-12T11:05:06.088Z,39.21
2018-01-12T11:06:06.560Z,39.18
2018-01-12T11:07:07.035Z,39.15
2018-01-12T11:08:07.508Z,39.15
2018-01-12T11:09:07.981Z,39.11
2018-01-12T11:12:09.398Z,39.00
2018-01-12T11:13:09.872Z,38.95
2018-01-12T11:14:10.346Z,38.93
2018-01-12T11:15:10.815Z,38.91
2018-01-12T11:16:11.289Z,38.92
2018-01-12T11:17:11.766Z,38.92
2018-01-12T11:18:12.238Z,38.90
2018-01-12T11:20:13.184Z,38.86
2018-01-12T11:21:13.655Z,38.85
2018-01-12T11:22:14.124Z,38.84
2018-01-12T11:23:14.602Z,38.86
2018-01-12T11:24:15.076Z,38.84
2018-01-12T11:25:15.599Z,38.83
2018-01-12T11:26:16.017Z,38.79
2018-01-12T11:28:16.965Z,38.75
2018-01-12T11:29:17.439Z,38.75
2018-01-12T11:31:18.382Z,38.78
2018-01-12T11:32:18.858Z,38.74
2018-01-12T11:34:19.805Z,38.71
2018-01-12T11:35:20.275Z,38.68
2018-01-12T11:36:20.752Z,38.67
2018-01-12T11:37:21.224Z,38.64
2018-01-12T11:38:21.698Z,38.60
2018-01-12T11:39:22.170Z,38.59
2018-01-12T11:41:23.116Z,38.53
2018-01-12T11:42:23.585Z,38.53
2018-01-12T11:44:24.536Z,38.53
2018-01-12T11:45:25.008Z,38.54
2018-01-12T11:46:25.481Z,38.55
2018-01-12T11:47:25.953Z,38.55
2018-01-12T11:49:26.900Z,38.54
2018-01-12T11:50:27.373Z,38.52
2018-01-12T11:51:27.896Z,38.52
2018-01-12T11:52:28.319Z,38.52
2018-01-12T11:53:28.789Z,38.54
2018-01-12T11:55:29.740Z,38.54
2018-01-12T11:56:30.211Z,38.50
2018-01-12T11:57:30.684Z,38.47
2018-01-12T11:58:31.158Z,38.44
2018-01-12T11:59:31.633Z,38.45
2018-01-12T12:00:32.101Z,38.46
2018-01-12T12:01:32.579Z,38.48
2018-01-12T12:02:33.052Z,38.53
2018-01-12T12:03:33.527Z,38.53
2018-01-12T12:04:33.992Z,38.53
2018-01-12T12:05:34.469Z,38.51
2018-01-12T12:06:34.944Z,38.49
2018-01-12T12:07:35.418Z,38.48
2018-01-12T12:08:35.890Z,38.49
2018-01-12T12:09:36.364Z,38.49
2018-01-12T12:10:36.838Z,38.52
2018-01-12T12:11:37.305Z,38.52
2018-01-12T12:13:38.254Z,38.54
2018-01-12T12:14:38.729Z,38.55
2018-01-12T12:15:39.198Z,38.53
2018-01-12T12:16:39.676Z,38.52
2018-01-12T12:17:40.147Z,38.53
2018-01-12T12:18:40.622Z,38.51
2018-01-12T12:19:41.092Z,38.51
2018-01-12T12:20:41.567Z,38.51
2018-01-12T12:21:42.042Z,38.51
2018-01-12T12:22:42.509Z,38.49
2018-01-12T12:23:42.989Z,38.49
2018-01-12T12:24:43.460Z,38.48
2018-01-12T12:25:43.934Z,38.49
2018-01-12T12:26:44.408Z,38.47
2018-01-12T12:27:44.879Z,38.46
2018-01-12T12:28:45.353Z,38.44
2018-01-12T12:29:45.826Z,38.45
2018-01-12T12:30:46.300Z,38.43
2018-01-12T12:31:46.773Z,38.45
2018-01-12T12:32:47.245Z,38.41
2018-01-12T12:33:47.714Z,38.43
2018-01-12T12:34:48.192Z,38.43
2018-01-12T12:35:48.668Z,38.44
2018-01-12T12:36:49.137Z,38.47
2018-01-12T12:37:49.613Z,38.46
2018-01-12T12:38:50.084Z,38.44
2018-01-12T12:39:50.558Z,38.42
2018-01-12T12:40:51.031Z,38.40
2018-01-12T12:42:51.976Z,38.38
2018-01-12T12:43:52.448Z,38.37
2018-01-12T12:44:52.923Z,38.38
2018-01-12T12:45:53.395Z,38.38
2018-01-12T12:46:53.869Z,38.35
2018-01-12T12:47:54.338Z,38.35
2018-01-12T12:49:55.287Z,38.31
2018-01-12T12:50:55.762Z,38.31
2018-01-12T12:51:56.234Z,38.32
2018-01-12T12:52:56.701Z,38.33
2018-01-12T12:53:57.178Z,38.32
2018-01-12T12:54:57.653Z,38.27
2018-01-12T12:56:58.599Z,38.30
2018-01-12T12:57:59.122Z,38.28
2018-01-12T12:58:59.543Z,38.29
2018-01-12T13:00:00.027Z,38.29
2018-01-12T13:01:00.491Z,38.29
2018-01-12T13:02:00.963Z,38.29
2018-01-12T13:03:01.432Z,38.30
2018-01-12T13:04:01.910Z,38.29
2018-01-12T13:06:02.857Z,38.32
2018-01-12T13:07:03.328Z,38.33
2018-01-12T13:08:03.802Z,38.32
2018-01-12T13:09:04.479Z,38.33
2018-01-12T13:10:04.747Z,38.33
2018-01-12T13:11:05.220Z,38.31
2018-01-12T13:12:05.695Z,38.33
2018-01-12T13:13:06.164Z,38.33
2018-01-12T13:14:06.640Z,38.34
2018-01-12T13:15:07.112Z,38.34
2018-01-12T13:17:08.053Z,38.35
2018-01-12T13:18:08.530Z,38.36
2018-01-12T13:19:09.004Z,38.37
2018-01-12T13:20:09.478Z,38.38
2018-01-12T13:21:09.949Z,38.40
2018-01-12T13:22:10.421Z,38.39
2018-01-12T13:23:10.893Z,38.42
2018-01-12T13:25:11.843Z,38.37
2018-01-12T13:26:12.311Z,38.37
2018-01-12T13:27:12.786Z,38.33
2018-01-12T13:28:13.257Z,38.34
2018-01-12T13:29:13.725Z,38.30
2018-01-12T13:30:14.204Z,38.32
2018-01-12T13:31:14.676Z,38.33
2018-01-12T13:32:15.147Z,38.31
2018-01-12T13:33:15.629Z,38.27
2018-01-12T13:34:16.093Z,38.27
2018-01-12T13:36:17.036Z,38.25
2018-01-12T13:37:17.512Z,38.24
2018-01-12T13:38:17.985Z,38.21
2018-01-12T13:40:18.930Z,38.23
2018-01-12T13:41:19.402Z,38.24
2018-01-12T13:42:19.876Z,38.22
2018-01-12T13:43:20.347Z,38.22
2018-01-12T13:44:20.820Z,38.24
2018-01-12T13:46:21.765Z,38.25
2018-01-12T13:47:22.233Z,38.30
2018-01-12T13:48:22.708Z,38.22
2018-01-12T13:49:23.182Z,38.20
2018-01-12T13:50:23.709Z,38.20
2018-01-12T13:51:24.128Z,38.22
2018-01-12T13:52:24.601Z,38.21
2018-01-12T13:54:37.386Z,38.24
2018-01-12T13:55:26.015Z,38.27
2018-01-12T13:56:26.490Z,38.28
2018-01-12T14:00:28.379Z,38.27
2018-01-12T14:01:28.853Z,38.26
2018-01-12T14:02:29.325Z,38.29
2018-01-12T14:03:29.796Z,38.28
2018-01-12T14:05:30.741Z,38.22